sensor_id;sensor_type;location;lat;lon;timestamp;P1;durP1;ratioP1;P2;durP2;ratioP2
74892;SDS011;63446;56.272;43.922;2024-01-30T00:00:53;18.65;;;7.15;;
74892;SDS011;63446;56.272;43.922;2024-01-30T00:03:18;23.40;;;7.63;;
74892;SDS011;63446;56.272;43.922;2024-01-30T00:05:44;19.58;;;7.28;;
74892;SDS011;63446;56.272;43.922;2024-01-30T00:08:11;19.50;;;7.38;;
74892;SDS011;63446;56.272;43.922;2024-01-30T00:10:37;22.13;;;8.50;;
74892;SDS011;63446;56.272;43.922;2024-01-30T00:13:03;20.70;;;7.72;;
74892;SDS011;63446;56.272;43.922;2024-01-30T00:15:29;20.33;;;7.35;;
74892;SDS011;63446;56.272;43.922;2024-01-30T00:17:54;19.73;;;7.27;;
74892;SDS011;63446;56.272;43.922;2024-01-30T00:20:20;20.35;;;7.45;;
74892;SDS011;63446;56.272;43.922;2024-01-30T00:22:46;17.48;;;7.40;;
74892;SDS011;63446;56.272;43.922;2024-01-30T00:25:13;18.08;;;7.97;;
74892;SDS011;63446;56.272;43.922;2024-01-30T00:27:40;18.93;;;7.30;;
74892;SDS011;63446;56.272;43.922;2024-01-30T00:30:06;20.65;;;7.05;;
74892;SDS011;63446;56.272;43.922;2024-01-30T00:32:32;20.33;;;7.18;;
74892;SDS011;63446;56.272;43.922;2024-01-30T00:34:58;18.98;;;7.88;;
74892;SDS011;63446;56.272;43.922;2024-01-30T00:37:24;18.95;;;7.40;;
74892;SDS011;63446;56.272;43.922;2024-01-30T00:39:50;21.50;;;7.53;;
74892;SDS011;63446;56.272;43.922;2024-01-30T00:42:15;20.07;;;7.27;;
74892;SDS011;63446;56.272;43.922;2024-01-30T00:44:41;19.15;;;7.65;;
74892;SDS011;63446;56.272;43.922;2024-01-30T00:47:08;18.63;;;6.97;;
74892;SDS011;63446;56.272;43.922;2024-01-30T00:49:34;21.23;;;6.90;;
74892;SDS011;63446;56.272;43.922;2024-01-30T00:51:59;20.75;;;7.60;;
74892;SDS011;63446;56.272;43.922;2024-01-30T00:54:25;21.83;;;7.60;;
74892;SDS011;63446;56.272;43.922;2024-01-30T00:56:51;21.00;;;8.02;;
74892;SDS011;63446;56.272;43.922;2024-01-30T00:59:17;19.73;;;7.60;;
74892;SDS011;63446;56.272;43.922;2024-01-30T01:01:42;20.52;;;7.53;;
74892;SDS011;63446;56.272;43.922;2024-01-30T01:04:08;19.07;;;7.57;;
74892;SDS011;63446;56.272;43.922;2024-01-30T01:06:34;16.95;;;6.80;;
74892;SDS011;63446;56.272;43.922;2024-01-30T01:09:00;22.40;;;8.00;;
74892;SDS011;63446;56.272;43.922;2024-01-30T01:11:26;17.23;;;7.35;;
74892;SDS011;63446;56.272;43.922;2024-01-30T01:13:53;18.55;;;7.28;;
74892;SDS011;63446;56.272;43.922;2024-01-30T01:16:19;16.83;;;6.68;;
74892;SDS011;63446;56.272;43.922;2024-01-30T01:18:44;20.55;;;7.53;;
74892;SDS011;63446;56.272;43.922;2024-01-30T01:21:11;17.87;;;6.77;;
74892;SDS011;63446;56.272;43.922;2024-01-30T01:23:37;20.55;;;7.05;;
74892;SDS011;63446;56.272;43.922;2024-01-30T01:26:02;21.20;;;7.05;;
74892;SDS011;63446;56.272;43.922;2024-01-30T01:28:28;19.67;;;7.53;;
74892;SDS011;63446;56.272;43.922;2024-01-30T01:30:54;20.20;;;7.38;;
74892;SDS011;63446;56.272;43.922;2024-01-30T01:33:24;20.67;;;7.50;;
74892;SDS011;63446;56.272;43.922;2024-01-30T01:35:51;17.55;;;7.28;;
74892;SDS011;63446;56.272;43.922;2024-01-30T01:38:17;20.42;;;7.78;;
74892;SDS011;63446;56.272;43.922;2024-01-30T01:40:43;17.40;;;7.32;;
74892;SDS011;63446;56.272;43.922;2024-01-30T01:43:09;19.30;;;7.27;;
74892;SDS011;63446;56.272;43.922;2024-01-30T01:45:35;19.80;;;6.70;;
74892;SDS011;63446;56.272;43.922;2024-01-30T01:48:01;18.60;;;7.25;;
74892;SDS011;63446;56.272;43.922;2024-01-30T01:50:28;21.20;;;7.32;;
74892;SDS011;63446;56.272;43.922;2024-01-30T01:52:54;18.77;;;7.23;;
74892;SDS011;63446;56.272;43.922;2024-01-30T01:55:20;19.55;;;6.85;;
74892;SDS011;63446;56.272;43.922;2024-01-30T01:57:51;19.42;;;7.03;;
74892;SDS011;63446;56.272;43.922;2024-01-30T02:00:18;18.55;;;6.60;;
74892;SDS011;63446;56.272;43.922;2024-01-30T02:02:45;19.85;;;7.55;;
74892;SDS011;63446;56.272;43.922;2024-01-30T02:05:12;18.13;;;6.63;;
74892;SDS011;63446;56.272;43.922;2024-01-30T02:07:38;17.77;;;7.30;;
74892;SDS011;63446;56.272;43.922;2024-01-30T02:10:05;18.73;;;7.65;;
74892;SDS011;63446;56.272;43.922;2024-01-30T02:12:33;17.67;;;6.93;;
74892;SDS011;63446;56.272;43.922;2024-01-30T02:14:59;19.53;;;7.07;;
74892;SDS011;63446;56.272;43.922;2024-01-30T02:17:25;18.33;;;7.30;;
74892;SDS011;63446;56.272;43.922;2024-01-30T02:19:52;19.33;;;7.60;;
74892;SDS011;63446;56.272;43.922;2024-01-30T02:22:18;16.77;;;7.20;;
74892;SDS011;63446;56.272;43.922;2024-01-30T02:24:45;15.82;;;7.05;;
74892;SDS011;63446;56.272;43.922;2024-01-30T02:27:11;18.67;;;6.63;;
74892;SDS011;63446;56.272;43.922;2024-01-30T02:29:37;17.42;;;6.30;;
74892;SDS011;63446;56.272;43.922;2024-01-30T02:32:03;19.75;;;7.82;;
74892;SDS011;63446;56.272;43.922;2024-01-30T02:34:30;21.38;;;7.28;;
74892;SDS011;63446;56.272;43.922;2024-01-30T02:36:55;20.88;;;7.13;;
74892;SDS011;63446;56.272;43.922;2024-01-30T02:39:21;20.27;;;7.28;;
74892;SDS011;63446;56.272;43.922;2024-01-30T02:41:47;16.60;;;6.75;;
74892;SDS011;63446;56.272;43.922;2024-01-30T02:44:13;19.63;;;6.95;;
74892;SDS011;63446;56.272;43.922;2024-01-30T02:46:38;17.83;;;7.07;;
74892;SDS011;63446;56.272;43.922;2024-01-30T02:49:04;17.10;;;6.97;;
74892;SDS011;63446;56.272;43.922;2024-01-30T02:51:30;18.85;;;7.10;;
74892;SDS011;63446;56.272;43.922;2024-01-30T02:53:56;16.73;;;6.88;;
74892;SDS011;63446;56.272;43.922;2024-01-30T02:56:21;15.90;;;6.60;;
74892;SDS011;63446;56.272;43.922;2024-01-30T02:58:47;20.63;;;7.20;;
74892;SDS011;63446;56.272;43.922;2024-01-30T03:01:13;19.00;;;6.83;;
74892;SDS011;63446;56.272;43.922;2024-01-30T03:03:40;18.38;;;7.75;;
74892;SDS011;63446;56.272;43.922;2024-01-30T03:06:06;20.83;;;7.57;;
74892;SDS011;63446;56.272;43.922;2024-01-30T03:08:32;23.50;;;7.30;;
74892;SDS011;63446;56.272;43.922;2024-01-30T03:11:00;17.38;;;6.82;;
74892;SDS011;63446;56.272;43.922;2024-01-30T03:13:26;17.85;;;6.95;;
74892;SDS011;63446;56.272;43.922;2024-01-30T03:15:52;17.55;;;7.38;;
74892;SDS011;63446;56.272;43.922;2024-01-30T03:18:18;18.53;;;7.27;;
74892;SDS011;63446;56.272;43.922;2024-01-30T03:20:44;19.20;;;6.72;;
74892;SDS011;63446;56.272;43.922;2024-01-30T03:23:10;19.10;;;6.93;;
74892;SDS011;63446;56.272;43.922;2024-01-30T03:25:36;17.00;;;7.07;;
74892;SDS011;63446;56.272;43.922;2024-01-30T03:28:02;16.93;;;7.13;;
74892;SDS011;63446;56.272;43.922;2024-01-30T03:30:28;19.50;;;7.15;;
74892;SDS011;63446;56.272;43.922;2024-01-30T03:32:54;16.83;;;6.72;;
74892;SDS011;63446;56.272;43.922;2024-01-30T03:35:20;21.80;;;7.77;;
74892;SDS011;63446;56.272;43.922;2024-01-30T03:37:46;17.02;;;6.45;;
74892;SDS011;63446;56.272;43.922;2024-01-30T03:40:12;19.80;;;7.40;;
74892;SDS011;63446;56.272;43.922;2024-01-30T03:42:38;20.13;;;7.07;;
74892;SDS011;63446;56.272;43.922;2024-01-30T03:45:04;18.40;;;7.05;;
74892;SDS011;63446;56.272;43.922;2024-01-30T03:47:32;18.85;;;6.93;;
74892;SDS011;63446;56.272;43.922;2024-01-30T03:49:58;20.23;;;7.75;;
74892;SDS011;63446;56.272;43.922;2024-01-30T03:52:24;20.70;;;7.47;;
74892;SDS011;63446;56.272;43.922;2024-01-30T03:54:49;16.45;;;6.63;;
74892;SDS011;63446;56.272;43.922;2024-01-30T03:57:15;19.97;;;7.80;;
74892;SDS011;63446;56.272;43.922;2024-01-30T03:59:41;19.23;;;7.13;;
74892;SDS011;63446;56.272;43.922;2024-01-30T04:02:07;20.90;;;7.72;;
74892;SDS011;63446;56.272;43.922;2024-01-30T04:04:33;19.27;;;7.65;;
74892;SDS011;63446;56.272;43.922;2024-01-30T04:06:59;19.37;;;7.03;;
74892;SDS011;63446;56.272;43.922;2024-01-30T04:09:25;21.05;;;7.40;;
74892;SDS011;63446;56.272;43.922;2024-01-30T04:11:54;22.98;;;8.23;;
74892;SDS011;63446;56.272;43.922;2024-01-30T04:14:19;17.98;;;7.43;;
74892;SDS011;63446;56.272;43.922;2024-01-30T04:16:45;22.60;;;8.30;;
74892;SDS011;63446;56.272;43.922;2024-01-30T04:19:11;17.95;;;7.10;;
74892;SDS011;63446;56.272;43.922;2024-01-30T04:21:37;20.33;;;7.40;;
74892;SDS011;63446;56.272;43.922;2024-01-30T04:24:03;20.45;;;8.10;;
74892;SDS011;63446;56.272;43.922;2024-01-30T04:26:29;20.42;;;8.13;;
74892;SDS011;63446;56.272;43.922;2024-01-30T04:28:55;18.90;;;8.17;;
74892;SDS011;63446;56.272;43.922;2024-01-30T04:31:21;20.42;;;7.43;;
74892;SDS011;63446;56.272;43.922;2024-01-30T04:33:47;20.60;;;8.00;;
74892;SDS011;63446;56.272;43.922;2024-01-30T04:36:13;19.67;;;7.90;;
74892;SDS011;63446;56.272;43.922;2024-01-30T04:38:39;15.90;;;6.55;;
74892;SDS011;63446;56.272;43.922;2024-01-30T04:41:05;21.58;;;8.10;;
74892;SDS011;63446;56.272;43.922;2024-01-30T04:43:30;18.52;;;7.65;;
74892;SDS011;63446;56.272;43.922;2024-01-30T04:45:57;23.83;;;7.85;;
74892;SDS011;63446;56.272;43.922;2024-01-30T04:48:23;21.97;;;7.90;;
74892;SDS011;63446;56.272;43.922;2024-01-30T04:50:49;19.58;;;8.68;;
74892;SDS011;63446;56.272;43.922;2024-01-30T04:53:14;19.67;;;7.53;;
74892;SDS011;63446;56.272;43.922;2024-01-30T04:55:40;22.13;;;7.65;;
74892;SDS011;63446;56.272;43.922;2024-01-30T04:58:06;22.85;;;7.75;;
74892;SDS011;63446;56.272;43.922;2024-01-30T05:00:33;18.80;;;7.10;;
74892;SDS011;63446;56.272;43.922;2024-01-30T05:02:59;20.10;;;7.30;;
74892;SDS011;63446;56.272;43.922;2024-01-30T05:05:25;17.55;;;7.30;;
74892;SDS011;63446;56.272;43.922;2024-01-30T05:07:51;17.60;;;7.35;;
74892;SDS011;63446;56.272;43.922;2024-01-30T05:10:17;20.17;;;7.40;;
74892;SDS011;63446;56.272;43.922;2024-01-30T05:12:44;19.90;;;6.80;;
74892;SDS011;63446;56.272;43.922;2024-01-30T05:15:10;21.23;;;7.10;;
74892;SDS011;63446;56.272;43.922;2024-01-30T05:17:35;17.23;;;6.47;;
74892;SDS011;63446;56.272;43.922;2024-01-30T05:20:01;18.63;;;7.65;;
74892;SDS011;63446;56.272;43.922;2024-01-30T05:22:30;15.30;;;6.73;;
74892;SDS011;63446;56.272;43.922;2024-01-30T05:24:56;17.45;;;6.85;;
74892;SDS011;63446;56.272;43.922;2024-01-30T05:27:23;18.80;;;7.10;;
74892;SDS011;63446;56.272;43.922;2024-01-30T05:29:48;17.42;;;6.47;;
74892;SDS011;63446;56.272;43.922;2024-01-30T05:32:15;16.20;;;6.10;;
74892;SDS011;63446;56.272;43.922;2024-01-30T05:34:42;18.20;;;6.53;;
74892;SDS011;63446;56.272;43.922;2024-01-30T05:37:08;16.05;;;6.20;;
74892;SDS011;63446;56.272;43.922;2024-01-30T05:39:34;14.65;;;6.25;;
74892;SDS011;63446;56.272;43.922;2024-01-30T05:42:01;13.83;;;5.73;;
74892;SDS011;63446;56.272;43.922;2024-01-30T05:44:27;20.77;;;6.28;;
74892;SDS011;63446;56.272;43.922;2024-01-30T05:46:53;19.70;;;6.95;;
74892;SDS011;63446;56.272;43.922;2024-01-30T05:49:19;14.83;;;6.03;;
74892;SDS011;63446;56.272;43.922;2024-01-30T05:51:45;16.48;;;6.30;;
74892;SDS011;63446;56.272;43.922;2024-01-30T05:54:11;14.37;;;6.17;;
74892;SDS011;63446;56.272;43.922;2024-01-30T05:56:36;14.15;;;5.90;;
74892;SDS011;63446;56.272;43.922;2024-01-30T05:59:02;17.20;;;6.57;;
74892;SDS011;63446;56.272;43.922;2024-01-30T06:01:29;16.02;;;6.70;;
74892;SDS011;63446;56.272;43.922;2024-01-30T06:03:54;16.75;;;6.57;;
74892;SDS011;63446;56.272;43.922;2024-01-30T06:06:21;15.53;;;6.10;;
74892;SDS011;63446;56.272;43.922;2024-01-30T06:08:46;13.20;;;6.00;;
74892;SDS011;63446;56.272;43.922;2024-01-30T06:11:12;15.07;;;6.00;;
74892;SDS011;63446;56.272;43.922;2024-01-30T06:13:38;16.38;;;5.85;;
74892;SDS011;63446;56.272;43.922;2024-01-30T06:16:09;13.10;;;5.25;;
74892;SDS011;63446;56.272;43.922;2024-01-30T06:18:36;15.97;;;5.93;;
74892;SDS011;63446;56.272;43.922;2024-01-30T06:21:02;14.68;;;5.60;;
74892;SDS011;63446;56.272;43.922;2024-01-30T06:23:27;14.35;;;6.18;;
74892;SDS011;63446;56.272;43.922;2024-01-30T06:25:53;16.48;;;5.55;;
74892;SDS011;63446;56.272;43.922;2024-01-30T06:28:19;13.90;;;5.87;;
74892;SDS011;63446;56.272;43.922;2024-01-30T06:30:44;13.90;;;5.35;;
74892;SDS011;63446;56.272;43.922;2024-01-30T06:33:11;14.60;;;6.17;;
74892;SDS011;63446;56.272;43.922;2024-01-30T06:35:38;15.45;;;5.50;;
74892;SDS011;63446;56.272;43.922;2024-01-30T06:38:05;17.35;;;5.63;;
74892;SDS011;63446;56.272;43.922;2024-01-30T06:40:31;16.30;;;6.15;;
74892;SDS011;63446;56.272;43.922;2024-01-30T06:42:57;17.90;;;5.93;;
74892;SDS011;63446;56.272;43.922;2024-01-30T06:45:23;14.07;;;6.05;;
74892;SDS011;63446;56.272;43.922;2024-01-30T06:47:49;15.13;;;5.67;;
74892;SDS011;63446;56.272;43.922;2024-01-30T06:50:15;12.10;;;5.45;;
74892;SDS011;63446;56.272;43.922;2024-01-30T06:52:40;14.93;;;5.47;;
74892;SDS011;63446;56.272;43.922;2024-01-30T06:55:07;14.38;;;5.35;;
74892;SDS011;63446;56.272;43.922;2024-01-30T06:57:33;17.35;;;6.00;;
74892;SDS011;63446;56.272;43.922;2024-01-30T06:59:58;16.90;;;5.30;;
74892;SDS011;63446;56.272;43.922;2024-01-30T07:02:24;11.98;;;5.28;;
74892;SDS011;63446;56.272;43.922;2024-01-30T07:04:50;12.20;;;5.00;;
74892;SDS011;63446;56.272;43.922;2024-01-30T07:07:15;11.82;;;5.38;;
74892;SDS011;63446;56.272;43.922;2024-01-30T07:09:41;12.37;;;5.00;;
74892;SDS011;63446;56.272;43.922;2024-01-30T07:12:07;13.93;;;5.03;;
74892;SDS011;63446;56.272;43.922;2024-01-30T07:14:33;11.63;;;5.03;;
74892;SDS011;63446;56.272;43.922;2024-01-30T07:16:59;16.98;;;5.18;;
74892;SDS011;63446;56.272;43.922;2024-01-30T07:19:25;13.13;;;4.60;;
74892;SDS011;63446;56.272;43.922;2024-01-30T07:21:51;14.00;;;5.20;;
74892;SDS011;63446;56.272;43.922;2024-01-30T07:24:17;12.88;;;5.20;;
74892;SDS011;63446;56.272;43.922;2024-01-30T07:26:43;17.23;;;5.77;;
74892;SDS011;63446;56.272;43.922;2024-01-30T07:29:09;13.35;;;5.25;;
74892;SDS011;63446;56.272;43.922;2024-01-30T07:31:34;17.70;;;6.30;;
74892;SDS011;63446;56.272;43.922;2024-01-30T07:34:01;15.07;;;5.50;;
74892;SDS011;63446;56.272;43.922;2024-01-30T07:36:28;14.75;;;5.20;;
74892;SDS011;63446;56.272;43.922;2024-01-30T07:38:54;13.93;;;5.75;;
74892;SDS011;63446;56.272;43.922;2024-01-30T07:41:20;18.55;;;6.00;;
74892;SDS011;63446;56.272;43.922;2024-01-30T07:43:47;18.30;;;5.77;;
74892;SDS011;63446;56.272;43.922;2024-01-30T07:46:13;14.65;;;5.18;;
74892;SDS011;63446;56.272;43.922;2024-01-30T07:48:40;16.48;;;6.35;;
74892;SDS011;63446;56.272;43.922;2024-01-30T07:51:06;15.07;;;5.10;;
74892;SDS011;63446;56.272;43.922;2024-01-30T07:53:33;19.90;;;5.20;;
74892;SDS011;63446;56.272;43.922;2024-01-30T07:55:58;15.98;;;5.20;;
74892;SDS011;63446;56.272;43.922;2024-01-30T07:58:25;12.60;;;4.63;;
74892;SDS011;63446;56.272;43.922;2024-01-30T08:00:53;14.88;;;5.03;;
74892;SDS011;63446;56.272;43.922;2024-01-30T08:03:19;15.15;;;5.15;;
74892;SDS011;63446;56.272;43.922;2024-01-30T08:05:45;13.43;;;4.63;;
74892;SDS011;63446;56.272;43.922;2024-01-30T08:08:10;15.15;;;4.72;;
74892;SDS011;63446;56.272;43.922;2024-01-30T08:10:37;12.55;;;4.82;;
74892;SDS011;63446;56.272;43.922;2024-01-30T08:13:03;15.50;;;5.55;;
74892;SDS011;63446;56.272;43.922;2024-01-30T08:15:29;17.13;;;5.00;;
74892;SDS011;63446;56.272;43.922;2024-01-30T08:17:55;19.15;;;5.47;;
74892;SDS011;63446;56.272;43.922;2024-01-30T08:20:24;12.88;;;4.72;;
74892;SDS011;63446;56.272;43.922;2024-01-30T08:22:51;15.70;;;5.30;;
74892;SDS011;63446;56.272;43.922;2024-01-30T08:25:17;15.13;;;5.13;;
74892;SDS011;63446;56.272;43.922;2024-01-30T08:27:44;17.95;;;4.97;;
74892;SDS011;63446;56.272;43.922;2024-01-30T08:30:11;14.15;;;5.38;;
74892;SDS011;63446;56.272;43.922;2024-01-30T08:32:38;13.30;;;5.22;;
74892;SDS011;63446;56.272;43.922;2024-01-30T08:35:04;15.50;;;4.43;;
74892;SDS011;63446;56.272;43.922;2024-01-30T08:37:30;15.70;;;5.05;;
74892;SDS011;63446;56.272;43.922;2024-01-30T08:39:56;10.73;;;4.85;;
74892;SDS011;63446;56.272;43.922;2024-01-30T08:42:22;15.82;;;5.10;;
74892;SDS011;63446;56.272;43.922;2024-01-30T08:44:48;14.23;;;5.03;;
74892;SDS011;63446;56.272;43.922;2024-01-30T08:47:17;14.55;;;5.35;;
74892;SDS011;63446;56.272;43.922;2024-01-30T08:49:44;15.90;;;5.55;;
74892;SDS011;63446;56.272;43.922;2024-01-30T08:52:10;14.25;;;5.35;;
74892;SDS011;63446;56.272;43.922;2024-01-30T08:54:37;14.63;;;4.80;;
74892;SDS011;63446;56.272;43.922;2024-01-30T08:57:03;13.95;;;5.03;;
74892;SDS011;63446;56.272;43.922;2024-01-30T08:59:30;14.48;;;5.57;;
74892;SDS011;63446;56.272;43.922;2024-01-30T09:01:56;15.25;;;5.63;;
74892;SDS011;63446;56.272;43.922;2024-01-30T09:04:24;120.75;;;10.00;;
74892;SDS011;63446;56.272;43.922;2024-01-30T09:06:50;14.40;;;5.10;;
74892;SDS011;63446;56.272;43.922;2024-01-30T09:09:17;14.75;;;5.20;;
74892;SDS011;63446;56.272;43.922;2024-01-30T09:11:43;15.45;;;5.60;;
74892;SDS011;63446;56.272;43.922;2024-01-30T09:14:10;15.18;;;5.40;;
74892;SDS011;63446;56.272;43.922;2024-01-30T09:16:37;15.27;;;5.30;;
74892;SDS011;63446;56.272;43.922;2024-01-30T09:19:03;14.27;;;5.05;;
74892;SDS011;63446;56.272;43.922;2024-01-30T09:21:29;14.13;;;4.88;;
74892;SDS011;63446;56.272;43.922;2024-01-30T09:24:01;14.35;;;5.38;;
74892;SDS011;63446;56.272;43.922;2024-01-30T09:26:30;14.88;;;5.20;;
74892;SDS011;63446;56.272;43.922;2024-01-30T09:28:55;13.87;;;5.60;;
74892;SDS011;63446;56.272;43.922;2024-01-30T09:31:21;16.10;;;5.15;;
74892;SDS011;63446;56.272;43.922;2024-01-30T09:33:47;18.88;;;5.68;;
74892;SDS011;63446;56.272;43.922;2024-01-30T09:36:15;15.38;;;5.57;;
74892;SDS011;63446;56.272;43.922;2024-01-30T09:38:44;12.80;;;5.28;;
74892;SDS011;63446;56.272;43.922;2024-01-30T09:41:10;15.70;;;5.88;;
74892;SDS011;63446;56.272;43.922;2024-01-30T09:43:38;16.42;;;6.07;;
74892;SDS011;63446;56.272;43.922;2024-01-30T09:46:08;13.20;;;5.65;;
74892;SDS011;63446;56.272;43.922;2024-01-30T09:48:43;18.08;;;5.75;;
74892;SDS011;63446;56.272;43.922;2024-01-30T09:51:15;15.32;;;5.85;;
74892;SDS011;63446;56.272;43.922;2024-01-30T09:53:42;17.17;;;5.55;;
74892;SDS011;63446;56.272;43.922;2024-01-30T09:56:09;15.23;;;5.57;;
74892;SDS011;63446;56.272;43.922;2024-01-30T09:58:36;16.00;;;5.43;;
74892;SDS011;63446;56.272;43.922;2024-01-30T10:01:03;13.43;;;4.70;;
74892;SDS011;63446;56.272;43.922;2024-01-30T10:03:29;12.13;;;4.60;;
74892;SDS011;63446;56.272;43.922;2024-01-30T10:05:55;16.27;;;5.32;;
74892;SDS011;63446;56.272;43.922;2024-01-30T10:08:21;13.82;;;4.63;;
74892;SDS011;63446;56.272;43.922;2024-01-30T10:10:49;15.32;;;4.60;;
74892;SDS011;63446;56.272;43.922;2024-01-30T10:13:16;11.55;;;4.90;;
74892;SDS011;63446;56.272;43.922;2024-01-30T10:15:42;11.52;;;4.47;;
74892;SDS011;63446;56.272;43.922;2024-01-30T10:18:08;11.25;;;4.68;;
74892;SDS011;63446;56.272;43.922;2024-01-30T10:20:36;16.88;;;4.72;;
74892;SDS011;63446;56.272;43.922;2024-01-30T10:23:03;15.20;;;4.97;;
74892;SDS011;63446;56.272;43.922;2024-01-30T10:25:32;11.18;;;4.82;;
74892;SDS011;63446;56.272;43.922;2024-01-30T10:27:58;16.85;;;5.53;;
74892;SDS011;63446;56.272;43.922;2024-01-30T10:30:24;14.07;;;4.57;;
74892;SDS011;63446;56.272;43.922;2024-01-30T10:32:50;10.70;;;4.00;;
74892;SDS011;63446;56.272;43.922;2024-01-30T10:35:17;15.05;;;4.80;;
74892;SDS011;63446;56.272;43.922;2024-01-30T10:37:44;13.27;;;4.60;;
74892;SDS011;63446;56.272;43.922;2024-01-30T10:40:13;14.02;;;5.03;;
74892;SDS011;63446;56.272;43.922;2024-01-30T10:42:42;16.08;;;4.68;;
74892;SDS011;63446;56.272;43.922;2024-01-30T10:45:10;11.55;;;4.82;;
74892;SDS011;63446;56.272;43.922;2024-01-30T10:47:54;13.50;;;4.60;;
74892;SDS011;63446;56.272;43.922;2024-01-30T10:50:24;14.20;;;4.32;;
74892;SDS011;63446;56.272;43.922;2024-01-30T10:52:51;10.68;;;4.03;;
74892;SDS011;63446;56.272;43.922;2024-01-30T10:55:18;12.20;;;4.30;;
74892;SDS011;63446;56.272;43.922;2024-01-30T10:57:44;12.30;;;4.25;;
74892;SDS011;63446;56.272;43.922;2024-01-30T11:00:10;11.35;;;3.92;;
74892;SDS011;63446;56.272;43.922;2024-01-30T11:02:39;13.18;;;3.85;;
74892;SDS011;63446;56.272;43.922;2024-01-30T11:05:06;12.70;;;4.45;;
74892;SDS011;63446;56.272;43.922;2024-01-30T11:07:34;10.32;;;4.32;;
74892;SDS011;63446;56.272;43.922;2024-01-30T11:10:00;11.98;;;3.92;;
74892;SDS011;63446;56.272;43.922;2024-01-30T11:12:33;12.05;;;4.40;;
74892;SDS011;63446;56.272;43.922;2024-01-30T11:20:36;9.93;;;4.20;;
74892;SDS011;63446;56.272;43.922;2024-01-30T11:23:02;16.55;;;4.45;;
74892;SDS011;63446;56.272;43.922;2024-01-30T11:25:32;11.40;;;4.00;;
74892;SDS011;63446;56.272;43.922;2024-01-30T11:27:58;14.07;;;4.45;;
74892;SDS011;63446;56.272;43.922;2024-01-30T11:30:25;16.58;;;4.90;;
74892;SDS011;63446;56.272;43.922;2024-01-30T11:33:02;12.55;;;5.20;;
74892;SDS011;63446;56.272;43.922;2024-01-30T11:35:43;12.23;;;4.65;;
74892;SDS011;63446;56.272;43.922;2024-01-30T11:38:13;15.20;;;4.72;;
74892;SDS011;63446;56.272;43.922;2024-01-30T11:40:40;11.45;;;4.43;;
74892;SDS011;63446;56.272;43.922;2024-01-30T11:43:07;12.45;;;4.53;;
74892;SDS011;63446;56.272;43.922;2024-01-30T11:45:35;11.10;;;4.80;;
74892;SDS011;63446;56.272;43.922;2024-01-30T11:48:02;12.88;;;4.72;;
74892;SDS011;63446;56.272;43.922;2024-01-30T11:50:32;13.65;;;5.20;;
74892;SDS011;63446;56.272;43.922;2024-01-30T11:53:00;13.88;;;5.25;;
74892;SDS011;63446;56.272;43.922;2024-01-30T11:55:26;14.38;;;5.60;;
74892;SDS011;63446;56.272;43.922;2024-01-30T11:57:57;17.50;;;6.25;;
74892;SDS011;63446;56.272;43.922;2024-01-30T12:00:24;11.27;;;4.68;;
74892;SDS011;63446;56.272;43.922;2024-01-30T12:02:51;13.63;;;4.10;;
74892;SDS011;63446;56.272;43.922;2024-01-30T12:05:22;13.73;;;4.43;;
74892;SDS011;63446;56.272;43.922;2024-01-30T12:07:48;11.75;;;4.28;;
74892;SDS011;63446;56.272;43.922;2024-01-30T12:10:14;11.27;;;4.27;;
74892;SDS011;63446;56.272;43.922;2024-01-30T12:12:41;12.13;;;4.40;;
74892;SDS011;63446;56.272;43.922;2024-01-30T12:15:08;12.27;;;4.32;;
74892;SDS011;63446;56.272;43.922;2024-01-30T12:17:35;14.50;;;4.35;;
74892;SDS011;63446;56.272;43.922;2024-01-30T12:20:05;11.43;;;4.63;;
74892;SDS011;63446;56.272;43.922;2024-01-30T12:25:07;13.02;;;5.05;;
74892;SDS011;63446;56.272;43.922;2024-01-30T12:27:34;18.65;;;5.85;;
74892;SDS011;63446;56.272;43.922;2024-01-30T12:30:01;20.27;;;5.90;;
74892;SDS011;63446;56.272;43.922;2024-01-30T12:32:31;17.52;;;5.22;;
74892;SDS011;63446;56.272;43.922;2024-01-30T12:34:57;16.70;;;5.85;;
74892;SDS011;63446;56.272;43.922;2024-01-30T12:37:24;21.53;;;5.53;;
74892;SDS011;63446;56.272;43.922;2024-01-30T12:39:53;12.38;;;4.70;;
74892;SDS011;63446;56.272;43.922;2024-01-30T12:42:19;11.02;;;4.53;;
74892;SDS011;63446;56.272;43.922;2024-01-30T12:44:48;14.27;;;5.38;;
74892;SDS011;63446;56.272;43.922;2024-01-30T12:47:15;14.90;;;5.32;;
74892;SDS011;63446;56.272;43.922;2024-01-30T12:49:42;17.67;;;4.90;;
74892;SDS011;63446;56.272;43.922;2024-01-30T12:52:13;11.90;;;4.43;;
74892;SDS011;63446;56.272;43.922;2024-01-30T12:54:40;13.10;;;5.07;;
74892;SDS011;63446;56.272;43.922;2024-01-30T12:57:05;12.82;;;4.80;;
74892;SDS011;63446;56.272;43.922;2024-01-30T12:59:31;16.40;;;5.50;;
74892;SDS011;63446;56.272;43.922;2024-01-30T13:01:59;16.38;;;5.57;;
74892;SDS011;63446;56.272;43.922;2024-01-30T13:04:26;15.13;;;5.68;;
74892;SDS011;63446;56.272;43.922;2024-01-30T13:06:53;16.63;;;5.80;;
74892;SDS011;63446;56.272;43.922;2024-01-30T13:09:21;16.65;;;5.32;;
74892;SDS011;63446;56.272;43.922;2024-01-30T13:11:46;16.13;;;5.35;;
74892;SDS011;63446;56.272;43.922;2024-01-30T13:14:12;20.13;;;5.68;;
74892;SDS011;63446;56.272;43.922;2024-01-30T13:16:38;17.70;;;5.90;;
74892;SDS011;63446;56.272;43.922;2024-01-30T13:19:04;21.02;;;5.95;;
74892;SDS011;63446;56.272;43.922;2024-01-30T13:21:32;19.67;;;6.03;;
74892;SDS011;63446;56.272;43.922;2024-01-30T13:23:58;20.53;;;6.27;;
74892;SDS011;63446;56.272;43.922;2024-01-30T13:26:23;21.05;;;6.55;;
74892;SDS011;63446;56.272;43.922;2024-01-30T13:28:49;20.88;;;6.65;;
74892;SDS011;63446;56.272;43.922;2024-01-30T13:31:15;22.40;;;7.33;;
74892;SDS011;63446;56.272;43.922;2024-01-30T13:33:41;20.50;;;6.88;;
74892;SDS011;63446;56.272;43.922;2024-01-30T13:36:08;23.02;;;7.18;;
74892;SDS011;63446;56.272;43.922;2024-01-30T13:38:35;19.73;;;6.37;;
74892;SDS011;63446;56.272;43.922;2024-01-30T13:41:01;23.10;;;7.45;;
74892;SDS011;63446;56.272;43.922;2024-01-30T13:43:28;19.08;;;6.80;;
74892;SDS011;63446;56.272;43.922;2024-01-30T13:45:54;22.17;;;7.40;;
74892;SDS011;63446;56.272;43.922;2024-01-30T13:48:20;18.37;;;7.00;;
74892;SDS011;63446;56.272;43.922;2024-01-30T13:50:47;26.70;;;7.85;;
74892;SDS011;63446;56.272;43.922;2024-01-30T13:53:13;22.00;;;7.15;;
74892;SDS011;63446;56.272;43.922;2024-01-30T13:55:39;21.15;;;7.10;;
74892;SDS011;63446;56.272;43.922;2024-01-30T13:58:06;24.63;;;6.97;;
74892;SDS011;63446;56.272;43.922;2024-01-30T14:00:32;19.48;;;7.05;;
74892;SDS011;63446;56.272;43.922;2024-01-30T14:02:59;19.48;;;6.82;;
74892;SDS011;63446;56.272;43.922;2024-01-30T14:05:27;16.45;;;6.78;;
74892;SDS011;63446;56.272;43.922;2024-01-30T14:07:53;21.38;;;7.50;;
74892;SDS011;63446;56.272;43.922;2024-01-30T14:10:20;22.00;;;7.73;;
74892;SDS011;63446;56.272;43.922;2024-01-30T14:12:46;23.00;;;8.27;;
74892;SDS011;63446;56.272;43.922;2024-01-30T14:15:13;20.92;;;7.53;;
74892;SDS011;63446;56.272;43.922;2024-01-30T14:17:47;21.02;;;7.90;;
74892;SDS011;63446;56.272;43.922;2024-01-30T14:20:15;18.73;;;7.90;;
74892;SDS011;63446;56.272;43.922;2024-01-30T14:22:44;16.63;;;6.60;;
74892;SDS011;63446;56.272;43.922;2024-01-30T14:25:10;18.08;;;5.50;;